Terminal Aerodrome Forecast
Issued by NWS

Home | Current Version | Previous Version | Text Only | Print | Product List | Glossary On
Versions: 1 2 3 4 5 6 7 8 9 10 11 12 13 14
000
FTUS43 KEAX 012300
TAFSTJ
TAF
KSTJ 012330Z 0200/0224 18015G25KT P6SM FEW050
     FM020800 30013G22KT 3SM -TSRA OVC015CB
     FM021100 35012KT P6SM VCSH BKN025
     FM021400 36011KT P6SM SCT035=

USA.gov is the U.S. government's official web portal to all federal, state and local government web resources and services.